sensor_id;sensor_type;location;lat;lon;timestamp;pressure;altitude;pressure_sealevel;temperature;humidity
30875;BME280;17581;43.222;27.924;2023-04-22T00:01:29;100441.16;;;13.00;64.33
30875;BME280;17581;43.222;27.924;2023-04-22T00:03:54;100432.78;;;13.03;64.17
30875;BME280;17581;43.222;27.924;2023-04-22T00:06:20;100441.88;;;13.02;63.84
30875;BME280;17581;43.222;27.924;2023-04-22T00:08:45;100439.88;;;13.04;63.72
30875;BME280;17581;43.222;27.924;2023-04-22T00:11:11;100432.66;;;13.15;63.56
30875;BME280;17581;43.222;27.924;2023-04-22T00:13:36;100422.56;;;13.17;63.36
30875;BME280;17581;43.222;27.924;2023-04-22T00:16:03;100427.94;;;13.17;63.02
30875;BME280;17581;43.222;27.924;2023-04-22T00:18:28;100434.91;;;13.19;62.69
30875;BME280;17581;43.222;27.924;2023-04-22T00:20:54;100429.06;;;13.24;62.33
30875;BME280;17581;43.222;27.924;2023-04-22T00:23:19;100415.16;;;13.09;62.38
30875;BME280;17581;43.222;27.924;2023-04-22T00:25:45;100439.59;;;13.17;62.26
30875;BME280;17581;43.222;27.924;2023-04-22T00:28:10;100436.75;;;13.19;62.22
30875;BME280;17581;43.222;27.924;2023-04-22T00:30:35;100437.19;;;13.24;61.98
30875;BME280;17581;43.222;27.924;2023-04-22T00:33:01;100433.06;;;13.20;62.05
30875;BME280;17581;43.222;27.924;2023-04-22T00:35:26;100439.59;;;13.17;62.28
30875;BME280;17581;43.222;27.924;2023-04-22T00:37:52;100429.38;;;13.11;63.23
30875;BME280;17581;43.222;27.924;2023-04-22T00:40:18;100429.38;;;13.21;62.99
30875;BME280;17581;43.222;27.924;2023-04-22T00:42:43;100429.91;;;13.24;63.54
30875;BME280;17581;43.222;27.924;2023-04-22T00:45:11;100412.88;;;13.24;63.61
30875;BME280;17581;43.222;27.924;2023-04-22T00:47:37;100430.34;;;13.29;63.85
30875;BME280;17581;43.222;27.924;2023-04-22T00:50:03;100433.31;;;13.36;63.87
30875;BME280;17581;43.222;27.924;2023-04-22T00:52:29;100406.31;;;13.26;64.13
30875;BME280;17581;43.222;27.924;2023-04-22T00:54:55;100436.41;;;13.41;64.09
30875;BME280;17581;43.222;27.924;2023-04-22T00:57:20;100436.09;;;13.44;63.86
30875;BME280;17581;43.222;27.924;2023-04-22T00:59:46;100428.69;;;13.46;63.67
30875;BME280;17581;43.222;27.924;2023-04-22T01:02:12;100436.81;;;13.46;63.67
30875;BME280;17581;43.222;27.924;2023-04-22T01:04:38;100434.41;;;13.43;63.69
30875;BME280;17581;43.222;27.924;2023-04-22T01:07:04;100429.03;;;13.33;63.57
30875;BME280;17581;43.222;27.924;2023-04-22T01:09:29;100435.84;;;13.37;63.38
30875;BME280;17581;43.222;27.924;2023-04-22T01:11:55;100431.28;;;13.38;63.11
30875;BME280;17581;43.222;27.924;2023-04-22T01:14:21;100431.44;;;13.36;63.24
30875;BME280;17581;43.222;27.924;2023-04-22T01:16:48;100411.72;;;13.26;63.46
30875;BME280;17581;43.222;27.924;2023-04-22T01:19:14;100422.50;;;13.36;63.05
30875;BME280;17581;43.222;27.924;2023-04-22T01:21:42;100417.91;;;13.36;63.23
30875;BME280;17581;43.222;27.924;2023-04-22T01:24:09;100406.88;;;13.30;63.24
30875;BME280;17581;43.222;27.924;2023-04-22T01:26:35;100413.53;;;13.35;63.01
30875;BME280;17581;43.222;27.924;2023-04-22T01:29:01;100406.28;;;13.36;62.59
30875;BME280;17581;43.222;27.924;2023-04-22T01:31:28;100407.66;;;13.40;61.37
30875;BME280;17581;43.222;27.924;2023-04-22T01:33:54;100408.69;;;13.39;60.96
30875;BME280;17581;43.222;27.924;2023-04-22T01:36:20;100415.38;;;13.35;60.49
30875;BME280;17581;43.222;27.924;2023-04-22T01:38:45;100409.97;;;13.35;60.21
30875;BME280;17581;43.222;27.924;2023-04-22T01:41:12;100419.38;;;13.31;59.59
30875;BME280;17581;43.222;27.924;2023-04-22T01:43:37;100411.44;;;13.29;59.26
30875;BME280;17581;43.222;27.924;2023-04-22T01:46:04;100412.56;;;13.27;59.62
30875;BME280;17581;43.222;27.924;2023-04-22T01:48:30;100418.81;;;13.27;59.19
30875;BME280;17581;43.222;27.924;2023-04-22T01:50:56;100412.00;;;13.23;59.36
30875;BME280;17581;43.222;27.924;2023-04-22T01:53:21;100411.16;;;13.23;59.16
30875;BME280;17581;43.222;27.924;2023-04-22T01:55:47;100412.88;;;13.24;59.03
30875;BME280;17581;43.222;27.924;2023-04-22T01:58:12;100413.00;;;13.22;59.25
30875;BME280;17581;43.222;27.924;2023-04-22T02:00:38;100416.28;;;13.26;58.55
30875;BME280;17581;43.222;27.924;2023-04-22T02:03:03;100413.56;;;13.26;58.73
30875;BME280;17581;43.222;27.924;2023-04-22T02:05:28;100404.78;;;13.14;58.53
30875;BME280;17581;43.222;27.924;2023-04-22T02:07:54;100396.13;;;13.11;58.48
30875;BME280;17581;43.222;27.924;2023-04-22T02:10:20;100405.19;;;13.19;58.36
30875;BME280;17581;43.222;27.924;2023-04-22T02:12:45;100398.50;;;13.23;58.88
30875;BME280;17581;43.222;27.924;2023-04-22T02:15:11;100410.88;;;13.26;58.73
30875;BME280;17581;43.222;27.924;2023-04-22T02:17:36;100395.81;;;13.23;58.72
30875;BME280;17581;43.222;27.924;2023-04-22T02:20:03;100396.97;;;13.21;58.54
30875;BME280;17581;43.222;27.924;2023-04-22T02:22:29;100406.16;;;13.28;58.01
30875;BME280;17581;43.222;27.924;2023-04-22T02:24:54;100412.56;;;13.27;58.37
30875;BME280;17581;43.222;27.924;2023-04-22T02:27:20;100408.72;;;13.29;58.39
30875;BME280;17581;43.222;27.924;2023-04-22T02:29:46;100412.28;;;13.30;58.55
30875;BME280;17581;43.222;27.924;2023-04-22T02:32:11;100403.75;;;13.25;58.16
30875;BME280;17581;43.222;27.924;2023-04-22T02:34:37;100409.72;;;13.28;58.27
30875;BME280;17581;43.222;27.924;2023-04-22T02:37:02;100413.69;;;13.24;58.20
30875;BME280;17581;43.222;27.924;2023-04-22T02:39:28;100392.56;;;13.20;58.17
30875;BME280;17581;43.222;27.924;2023-04-22T02:41:53;100417.84;;;13.19;58.21
30875;BME280;17581;43.222;27.924;2023-04-22T02:44:19;100406.63;;;13.14;58.58
30875;BME280;17581;43.222;27.924;2023-04-22T02:46:44;100408.19;;;13.06;58.91
30875;BME280;17581;43.222;27.924;2023-04-22T02:49:09;100415.41;;;13.06;59.00
30875;BME280;17581;43.222;27.924;2023-04-22T02:51:37;100411.06;;;12.95;59.46
30875;BME280;17581;43.222;27.924;2023-04-22T02:54:02;100418.31;;;12.76;60.49
30875;BME280;17581;43.222;27.924;2023-04-22T02:56:28;100400.31;;;12.57;60.70
30875;BME280;17581;43.222;27.924;2023-04-22T02:58:53;100426.84;;;12.81;60.77
30875;BME280;17581;43.222;27.924;2023-04-22T03:01:19;100428.69;;;12.80;61.17
30875;BME280;17581;43.222;27.924;2023-04-22T03:03:44;100425.84;;;12.72;60.89
30875;BME280;17581;43.222;27.924;2023-04-22T03:06:10;100417.34;;;12.57;61.89
30875;BME280;17581;43.222;27.924;2023-04-22T03:08:35;100413.09;;;12.55;61.72
30875;BME280;17581;43.222;27.924;2023-04-22T03:11:00;100427.44;;;12.65;61.55
30875;BME280;17581;43.222;27.924;2023-04-22T03:13:26;100428.00;;;12.59;61.63
30875;BME280;17581;43.222;27.924;2023-04-22T03:15:51;100418.94;;;12.41;61.98
30875;BME280;17581;43.222;27.924;2023-04-22T03:18:17;100417.78;;;12.34;62.83
30875;BME280;17581;43.222;27.924;2023-04-22T03:20:42;100421.91;;;12.38;62.56
30875;BME280;17581;43.222;27.924;2023-04-22T03:23:08;100431.69;;;12.39;62.38
30875;BME280;17581;43.222;27.924;2023-04-22T03:25:34;100425.72;;;12.35;62.76
30875;BME280;17581;43.222;27.924;2023-04-22T03:28:01;100426.84;;;12.33;63.83
30875;BME280;17581;43.222;27.924;2023-04-22T03:30:26;100432.53;;;12.30;64.66
30875;BME280;17581;43.222;27.924;2023-04-22T03:32:51;100439.03;;;12.18;65.48
30875;BME280;17581;43.222;27.924;2023-04-22T03:35:18;100436.50;;;12.16;65.96
30875;BME280;17581;43.222;27.924;2023-04-22T03:37:44;100451.25;;;12.22;66.07
30875;BME280;17581;43.222;27.924;2023-04-22T03:40:10;100454.94;;;12.21;66.49
30875;BME280;17581;43.222;27.924;2023-04-22T03:42:35;100432.91;;;12.06;66.55
30875;BME280;17581;43.222;27.924;2023-04-22T03:45:01;100448.25;;;12.06;66.82
30875;BME280;17581;43.222;27.924;2023-04-22T03:47:27;100456.66;;;12.22;66.87
30875;BME280;17581;43.222;27.924;2023-04-22T03:49:52;100458.47;;;12.12;67.96
30875;BME280;17581;43.222;27.924;2023-04-22T03:52:17;100464.41;;;12.06;67.99
30875;BME280;17581;43.222;27.924;2023-04-22T03:54:43;100476.47;;;12.11;68.22
30875;BME280;17581;43.222;27.924;2023-04-22T03:57:08;100475.66;;;12.11;68.06
30875;BME280;17581;43.222;27.924;2023-04-22T03:59:34;100480.31;;;12.09;68.09
30875;BME280;17581;43.222;27.924;2023-04-22T04:01:59;100481.59;;;12.05;68.10
30875;BME280;17581;43.222;27.924;2023-04-22T04:04:25;100493.66;;;12.10;68.18
30875;BME280;17581;43.222;27.924;2023-04-22T04:06:57;100501.75;;;12.10;68.12
30875;BME280;17581;43.222;27.924;2023-04-22T04:09:22;100492.53;;;12.13;67.37
30875;BME280;17581;43.222;27.924;2023-04-22T04:11:47;100502.06;;;12.17;67.29
30875;BME280;17581;43.222;27.924;2023-04-22T04:14:13;100492.97;;;12.18;66.63
30875;BME280;17581;43.222;27.924;2023-04-22T04:16:38;100508.03;;;12.30;66.33
30875;BME280;17581;43.222;27.924;2023-04-22T04:19:04;100512.59;;;12.39;66.38
30875;BME280;17581;43.222;27.924;2023-04-22T04:21:30;100505.22;;;12.41;65.81
30875;BME280;17581;43.222;27.924;2023-04-22T04:23:58;100504.94;;;12.44;66.00
30875;BME280;17581;43.222;27.924;2023-04-22T04:26:23;100500.69;;;12.51;65.52
30875;BME280;17581;43.222;27.924;2023-04-22T04:28:49;100515.34;;;12.68;65.11
30875;BME280;17581;43.222;27.924;2023-04-22T04:31:14;100515.47;;;12.76;64.51
30875;BME280;17581;43.222;27.924;2023-04-22T04:33:40;100511.78;;;12.77;63.95
30875;BME280;17581;43.222;27.924;2023-04-22T04:36:05;100520.59;;;12.88;63.75
30875;BME280;17581;43.222;27.924;2023-04-22T04:38:32;100529.13;;;12.84;63.40
30875;BME280;17581;43.222;27.924;2023-04-22T04:40:58;100535.06;;;12.87;63.49
30875;BME280;17581;43.222;27.924;2023-04-22T04:43:23;100533.41;;;12.96;63.55
30875;BME280;17581;43.222;27.924;2023-04-22T04:45:53;100524.56;;;13.03;63.66
30875;BME280;17581;43.222;27.924;2023-04-22T04:48:39;100530.56;;;13.17;63.22
30875;BME280;17581;43.222;27.924;2023-04-22T04:51:06;100535.97;;;13.26;63.03
30875;BME280;17581;43.222;27.924;2023-04-22T04:53:32;100541.34;;;13.36;62.40
30875;BME280;17581;43.222;27.924;2023-04-22T04:55:57;100554.00;;;13.45;62.02
30875;BME280;17581;43.222;27.924;2023-04-22T04:58:23;100560.38;;;13.53;61.56
30875;BME280;17581;43.222;27.924;2023-04-22T05:00:48;100570.03;;;13.56;61.63
30875;BME280;17581;43.222;27.924;2023-04-22T05:03:14;100560.63;;;13.60;61.41
30875;BME280;17581;43.222;27.924;2023-04-22T05:05:39;100563.06;;;13.63;61.38
30875;BME280;17581;43.222;27.924;2023-04-22T05:08:05;100565.75;;;13.63;61.35
30875;BME280;17581;43.222;27.924;2023-04-22T05:10:30;100554.66;;;13.66;61.45
30875;BME280;17581;43.222;27.924;2023-04-22T05:12:56;100555.06;;;13.71;61.29
30875;BME280;17581;43.222;27.924;2023-04-22T05:15:21;100562.56;;;13.87;61.14
30875;BME280;17581;43.222;27.924;2023-04-22T05:17:46;100561.22;;;14.00;60.86
30875;BME280;17581;43.222;27.924;2023-04-22T05:20:12;100565.59;;;14.11;60.69
30875;BME280;17581;43.222;27.924;2023-04-22T05:22:37;100567.25;;;14.22;60.39
30875;BME280;17581;43.222;27.924;2023-04-22T05:25:06;100569.38;;;14.28;59.91
30875;BME280;17581;43.222;27.924;2023-04-22T05:27:31;100571.06;;;14.29;59.69
30875;BME280;17581;43.222;27.924;2023-04-22T05:29:57;100569.19;;;14.29;59.67
30875;BME280;17581;43.222;27.924;2023-04-22T05:32:22;100573.13;;;14.44;59.47
30875;BME280;17581;43.222;27.924;2023-04-22T05:34:48;100575.66;;;14.55;59.04
30875;BME280;17581;43.222;27.924;2023-04-22T05:37:13;100579.41;;;14.45;59.65
30875;BME280;17581;43.222;27.924;2023-04-22T05:39:39;100578.50;;;14.54;59.61
30875;BME280;17581;43.222;27.924;2023-04-22T05:42:04;100568.78;;;14.61;59.49
30875;BME280;17581;43.222;27.924;2023-04-22T05:44:30;100580.31;;;14.63;59.35
30875;BME280;17581;43.222;27.924;2023-04-22T05:46:55;100585.28;;;14.67;59.51
30875;BME280;17581;43.222;27.924;2023-04-22T05:49:21;100584.13;;;14.70;59.79
30875;BME280;17581;43.222;27.924;2023-04-22T05:51:46;100599.03;;;14.74;59.59
30875;BME280;17581;43.222;27.924;2023-04-22T05:54:11;100599.06;;;14.92;59.50
30875;BME280;17581;43.222;27.924;2023-04-22T05:56:37;100590.88;;;15.01;59.04
30875;BME280;17581;43.222;27.924;2023-04-22T05:59:02;100592.66;;;15.10;56.53
30875;BME280;17581;43.222;27.924;2023-04-22T06:01:28;100592.09;;;15.24;56.28
30875;BME280;17581;43.222;27.924;2023-04-22T06:03:53;100602.88;;;15.16;52.54
30875;BME280;17581;43.222;27.924;2023-04-22T06:06:19;100606.44;;;15.35;53.07
30875;BME280;17581;43.222;27.924;2023-04-22T06:08:44;100606.81;;;15.40;52.48
30875;BME280;17581;43.222;27.924;2023-04-22T06:11:10;100611.69;;;15.54;52.17
30875;BME280;17581;43.222;27.924;2023-04-22T06:13:35;100604.88;;;15.67;51.30
30875;BME280;17581;43.222;27.924;2023-04-22T06:16:01;100593.66;;;15.88;51.09
30875;BME280;17581;43.222;27.924;2023-04-22T06:18:26;100609.06;;;16.13;50.69
30875;BME280;17581;43.222;27.924;2023-04-22T06:20:52;100610.84;;;16.30;50.03
30875;BME280;17581;43.222;27.924;2023-04-22T06:23:18;100612.78;;;16.38;49.47
30875;BME280;17581;43.222;27.924;2023-04-22T06:25:43;100609.06;;;16.47;49.08
30875;BME280;17581;43.222;27.924;2023-04-22T06:28:08;100610.28;;;16.53;48.67
30875;BME280;17581;43.222;27.924;2023-04-22T06:30:34;100578.06;;;16.24;48.72
30875;BME280;17581;43.222;27.924;2023-04-22T06:32:59;100614.94;;;16.34;48.79
30875;BME280;17581;43.222;27.924;2023-04-22T06:35:25;100619.56;;;16.42;48.76
30875;BME280;17581;43.222;27.924;2023-04-22T06:37:51;100618.56;;;16.51;48.91
30875;BME280;17581;43.222;27.924;2023-04-22T06:40:16;100620.03;;;16.29;48.69
30875;BME280;17581;43.222;27.924;2023-04-22T06:42:42;100617.00;;;16.32;48.10
30875;BME280;17581;43.222;27.924;2023-04-22T06:45:08;100620.72;;;16.40;49.08
30875;BME280;17581;43.222;27.924;2023-04-22T06:47:39;100622.91;;;16.62;47.79
30875;BME280;17581;43.222;27.924;2023-04-22T06:50:08;100627.13;;;16.56;47.91
30875;BME280;17581;43.222;27.924;2023-04-22T06:52:34;100631.81;;;16.80;47.86
30875;BME280;17581;43.222;27.924;2023-04-22T06:55:00;100631.50;;;16.91;47.76
30875;BME280;17581;43.222;27.924;2023-04-22T06:57:27;100630.00;;;16.97;47.51
30875;BME280;17581;43.222;27.924;2023-04-22T06:59:53;100623.72;;;16.96;47.33
30875;BME280;17581;43.222;27.924;2023-04-22T07:02:18;100626.63;;;17.11;46.58
30875;BME280;17581;43.222;27.924;2023-04-22T07:04:43;100610.16;;;17.12;47.02
30875;BME280;17581;43.222;27.924;2023-04-22T07:07:09;100628.53;;;17.34;46.74
30875;BME280;17581;43.222;27.924;2023-04-22T07:09:34;100627.16;;;17.47;46.47
30875;BME280;17581;43.222;27.924;2023-04-22T07:12:00;100629.28;;;17.61;46.13
30875;BME280;17581;43.222;27.924;2023-04-22T07:14:26;100635.38;;;17.71;45.98
30875;BME280;17581;43.222;27.924;2023-04-22T07:16:52;100622.47;;;17.73;45.66
30875;BME280;17581;43.222;27.924;2023-04-22T07:19:17;100637.72;;;17.50;45.78
30875;BME280;17581;43.222;27.924;2023-04-22T07:21:43;100644.53;;;17.46;46.26
30875;BME280;17581;43.222;27.924;2023-04-22T07:24:08;100652.69;;;17.46;46.52
30875;BME280;17581;43.222;27.924;2023-04-22T07:26:36;100640.63;;;17.48;46.29
30875;BME280;17581;43.222;27.924;2023-04-22T07:29:02;100616.97;;;17.40;45.93
30875;BME280;17581;43.222;27.924;2023-04-22T07:31:28;100651.19;;;17.67;45.90
30875;BME280;17581;43.222;27.924;2023-04-22T07:33:53;100661.91;;;17.61;45.79
30875;BME280;17581;43.222;27.924;2023-04-22T07:36:19;100652.53;;;17.71;45.95
30875;BME280;17581;43.222;27.924;2023-04-22T07:38:44;100639.81;;;17.64;45.92
30875;BME280;17581;43.222;27.924;2023-04-22T07:41:10;100658.81;;;17.80;45.27
30875;BME280;17581;43.222;27.924;2023-04-22T07:43:35;100662.56;;;17.87;45.21
30875;BME280;17581;43.222;27.924;2023-04-22T07:46:01;100665.47;;;17.85;45.14
30875;BME280;17581;43.222;27.924;2023-04-22T07:48:26;100664.56;;;17.53;45.09
30875;BME280;17581;43.222;27.924;2023-04-22T07:50:52;100656.75;;;17.50;45.30
30875;BME280;17581;43.222;27.924;2023-04-22T07:53:17;100671.72;;;17.54;45.39
30875;BME280;17581;43.222;27.924;2023-04-22T07:55:43;100670.56;;;17.56;45.10
30875;BME280;17581;43.222;27.924;2023-04-22T07:58:08;100667.97;;;17.47;44.98
30875;BME280;17581;43.222;27.924;2023-04-22T08:00:34;100668.03;;;17.55;44.65
30875;BME280;17581;43.222;27.924;2023-04-22T08:03:00;100658.13;;;17.46;44.74
30875;BME280;17581;43.222;27.924;2023-04-22T08:05:25;100660.69;;;17.55;45.03
30875;BME280;17581;43.222;27.924;2023-04-22T08:07:51;100664.44;;;17.62;45.35
30875;BME280;17581;43.222;27.924;2023-04-22T08:10:16;100665.81;;;17.66;45.60
30875;BME280;17581;43.222;27.924;2023-04-22T08:12:42;100663.59;;;17.78;45.83
30875;BME280;17581;43.222;27.924;2023-04-22T08:15:08;100665.97;;;17.89;45.70
30875;BME280;17581;43.222;27.924;2023-04-22T08:17:33;100664.59;;;18.01;44.65
30875;BME280;17581;43.222;27.924;2023-04-22T08:19:59;100668.19;;;18.10;43.64
30875;BME280;17581;43.222;27.924;2023-04-22T08:22:24;100656.78;;;17.98;44.35
30875;BME280;17581;43.222;27.924;2023-04-22T08:24:51;100666.31;;;18.02;44.27
30875;BME280;17581;43.222;27.924;2023-04-22T08:27:17;100650.47;;;18.06;44.02
30875;BME280;17581;43.222;27.924;2023-04-22T08:29:43;100650.47;;;18.22;44.13
30875;BME280;17581;43.222;27.924;2023-04-22T08:32:09;100647.22;;;18.26;43.63
30875;BME280;17581;43.222;27.924;2023-04-22T08:34:34;100660.78;;;18.42;43.55
30875;BME280;17581;43.222;27.924;2023-04-22T08:37:01;100655.66;;;18.47;43.27
30875;BME280;17581;43.222;27.924;2023-04-22T08:39:26;100659.06;;;18.41;43.38
30875;BME280;17581;43.222;27.924;2023-04-22T08:41:52;100651.25;;;18.38;43.08
30875;BME280;17581;43.222;27.924;2023-04-22T08:44:18;100654.00;;;18.30;42.38
30875;BME280;17581;43.222;27.924;2023-04-22T08:46:44;100651.78;;;18.34;42.54
30875;BME280;17581;43.222;27.924;2023-04-22T08:49:17;100655.22;;;18.28;42.77
30875;BME280;17581;43.222;27.924;2023-04-22T08:51:43;100648.72;;;18.37;42.14
30875;BME280;17581;43.222;27.924;2023-04-22T08:54:10;100647.16;;;18.42;42.40
30875;BME280;17581;43.222;27.924;2023-04-22T08:56:39;100658.22;;;18.57;42.33
30875;BME280;17581;43.222;27.924;2023-04-22T08:59:06;100642.41;;;18.53;42.19
30875;BME280;17581;43.222;27.924;2023-04-22T09:01:32;100640.34;;;18.55;42.44
30875;BME280;17581;43.222;27.924;2023-04-22T09:03:58;100656.28;;;18.74;42.26
30875;BME280;17581;43.222;27.924;2023-04-22T09:06:25;100650.19;;;18.64;42.37
30875;BME280;17581;43.222;27.924;2023-04-22T09:08:52;100655.34;;;18.51;42.12
30875;BME280;17581;43.222;27.924;2023-04-22T09:11:17;100663.34;;;18.52;41.55
30875;BME280;17581;43.222;27.924;2023-04-22T09:13:43;100649.19;;;18.48;41.14
30875;BME280;17581;43.222;27.924;2023-04-22T09:16:09;100655.28;;;18.67;41.52
30875;BME280;17581;43.222;27.924;2023-04-22T09:18:41;100658.66;;;18.77;41.19
30875;BME280;17581;43.222;27.924;2023-04-22T09:21:07;100645.28;;;18.90;41.49
30875;BME280;17581;43.222;27.924;2023-04-22T09:23:45;100653.00;;;19.17;40.57
30875;BME280;17581;43.222;27.924;2023-04-22T09:26:11;100633.91;;;19.17;40.75
30875;BME280;17581;43.222;27.924;2023-04-22T09:28:36;100639.56;;;19.38;39.92
30875;BME280;17581;43.222;27.924;2023-04-22T09:31:02;100664.44;;;19.43;39.36
30875;BME280;17581;43.222;27.924;2023-04-22T09:33:30;100647.44;;;19.41;39.51
30875;BME280;17581;43.222;27.924;2023-04-22T09:35:55;100653.47;;;19.51;39.57
30875;BME280;17581;43.222;27.924;2023-04-22T09:38:21;100655.19;;;19.52;39.19
30875;BME280;17581;43.222;27.924;2023-04-22T09:40:46;100641.41;;;19.46;39.52
30875;BME280;17581;43.222;27.924;2023-04-22T09:43:17;100650.16;;;19.41;38.84
30875;BME280;17581;43.222;27.924;2023-04-22T09:45:43;100648.66;;;19.31;39.46
30875;BME280;17581;43.222;27.924;2023-04-22T09:48:17;100663.78;;;19.33;39.64
30875;BME280;17581;43.222;27.924;2023-04-22T09:50:45;100648.00;;;19.29;39.31
30875;BME280;17581;43.222;27.924;2023-04-22T09:53:13;100647.75;;;19.38;39.67
30875;BME280;17581;43.222;27.924;2023-04-22T09:55:41;100644.56;;;19.58;38.36
30875;BME280;17581;43.222;27.924;2023-04-22T09:58:12;100644.44;;;19.74;38.58
30875;BME280;17581;43.222;27.924;2023-04-22T10:00:43;100648.66;;;19.99;38.95
30875;BME280;17581;43.222;27.924;2023-04-22T10:03:09;100634.09;;;20.21;38.17
30875;BME280;17581;43.222;27.924;2023-04-22T10:05:35;100636.38;;;20.32;37.64
30875;BME280;17581;43.222;27.924;2023-04-22T10:08:06;100635.34;;;20.33;37.61
30875;BME280;17581;43.222;27.924;2023-04-22T10:10:32;100638.00;;;20.27;38.02
30875;BME280;17581;43.222;27.924;2023-04-22T10:12:59;100642.06;;;19.93;38.28
30875;BME280;17581;43.222;27.924;2023-04-22T10:15:25;100650.31;;;20.00;38.44
30875;BME280;17581;43.222;27.924;2023-04-22T10:17:52;100635.72;;;19.93;37.76
30875;BME280;17581;43.222;27.924;2023-04-22T10:20:19;100642.22;;;19.92;38.06
30875;BME280;17581;43.222;27.924;2023-04-22T10:22:45;100646.94;;;19.98;37.82
30875;BME280;17581;43.222;27.924;2023-04-22T10:25:12;100639.78;;;19.97;38.25
30875;BME280;17581;43.222;27.924;2023-04-22T10:27:38;100645.03;;;19.84;37.70
30875;BME280;17581;43.222;27.924;2023-04-22T10:30:27;100648.16;;;19.95;37.27
30875;BME280;17581;43.222;27.924;2023-04-22T10:32:53;100634.06;;;20.06;37.33
30875;BME280;17581;43.222;27.924;2023-04-22T10:35:26;100620.44;;;20.21;37.77
30875;BME280;17581;43.222;27.924;2023-04-22T10:37:53;100628.56;;;20.58;37.65
30875;BME280;17581;43.222;27.924;2023-04-22T10:40:19;100632.50;;;20.71;36.96
30875;BME280;17581;43.222;27.924;2023-04-22T10:42:50;100639.38;;;20.37;37.19
30875;BME280;17581;43.222;27.924;2023-04-22T10:45:16;100632.81;;;20.09;37.79
30875;BME280;17581;43.222;27.924;2023-04-22T10:47:42;100631.56;;;20.34;37.64
30875;BME280;17581;43.222;27.924;2023-04-22T10:50:08;100631.00;;;20.53;37.27
30875;BME280;17581;43.222;27.924;2023-04-22T10:52:35;100632.63;;;20.48;37.63
30875;BME280;17581;43.222;27.924;2023-04-22T10:55:00;100627.53;;;20.30;36.86
30875;BME280;17581;43.222;27.924;2023-04-22T10:57:31;100620.25;;;20.37;37.08
30875;BME280;17581;43.222;27.924;2023-04-22T11:05:25;100624.00;;;21.31;37.39
30875;BME280;17581;43.222;27.924;2023-04-22T11:07:54;100630.56;;;21.15;37.15
30875;BME280;17581;43.222;27.924;2023-04-22T11:12:57;100630.22;;;20.89;38.31
30875;BME280;17581;43.222;27.924;2023-04-22T11:15:25;100630.69;;;20.92;38.17
30875;BME280;17581;43.222;27.924;2023-04-22T11:17:52;100622.44;;;20.56;38.23
30875;BME280;17581;43.222;27.924;2023-04-22T11:20:19;100626.31;;;20.47;38.61
30875;BME280;17581;43.222;27.924;2023-04-22T11:22:51;100636.66;;;20.67;38.27
30875;BME280;17581;43.222;27.924;2023-04-22T11:25:17;100630.50;;;20.94;37.97
30875;BME280;17581;43.222;27.924;2023-04-22T11:27:42;100632.47;;;21.00;37.36
30875;BME280;17581;43.222;27.924;2023-04-22T11:30:16;100632.25;;;21.16;37.71
30875;BME280;17581;43.222;27.924;2023-04-22T11:32:46;100634.41;;;21.21;37.50
30875;BME280;17581;43.222;27.924;2023-04-22T11:35:14;100631.50;;;21.22;37.23
30875;BME280;17581;43.222;27.924;2023-04-22T11:37:45;100620.19;;;21.25;36.92
30875;BME280;17581;43.222;27.924;2023-04-22T11:40:13;100633.84;;;21.25;37.44
30875;BME280;17581;43.222;27.924;2023-04-22T11:42:38;100622.53;;;21.13;37.50
30875;BME280;17581;43.222;27.924;2023-04-22T11:45:05;100628.94;;;21.21;37.91
30875;BME280;17581;43.222;27.924;2023-04-22T11:47:32;100641.28;;;21.31;37.35
30875;BME280;17581;43.222;27.924;2023-04-22T11:50:00;100633.56;;;21.20;37.48
30875;BME280;17581;43.222;27.924;2023-04-22T11:52:48;100633.59;;;21.05;37.46
30875;BME280;17581;43.222;27.924;2023-04-22T11:55:26;100627.91;;;21.22;37.06
30875;BME280;17581;43.222;27.924;2023-04-22T11:58:14;100629.94;;;21.34;37.12
30875;BME280;17581;43.222;27.924;2023-04-22T12:03:12;100625.75;;;21.59;36.85
30875;BME280;17581;43.222;27.924;2023-04-22T12:05:43;100622.63;;;21.62;36.44
30875;BME280;17581;43.222;27.924;2023-04-22T12:10:40;100628.16;;;21.27;37.47
30875;BME280;17581;43.222;27.924;2023-04-22T12:13:06;100622.31;;;21.30;37.85
30875;BME280;17581;43.222;27.924;2023-04-22T12:15:42;100611.44;;;21.36;37.41
30875;BME280;17581;43.222;27.924;2023-04-22T12:18:08;100617.69;;;21.30;37.64
30875;BME280;17581;43.222;27.924;2023-04-22T12:20:41;100610.13;;;21.32;37.56
30875;BME280;17581;43.222;27.924;2023-04-22T12:23:15;100615.28;;;21.21;38.12
30875;BME280;17581;43.222;27.924;2023-04-22T12:25:41;100619.06;;;21.05;38.39
30875;BME280;17581;43.222;27.924;2023-04-22T12:28:19;100614.56;;;20.83;38.43
30875;BME280;17581;43.222;27.924;2023-04-22T12:31:00;100627.53;;;20.59;38.82
30875;BME280;17581;43.222;27.924;2023-04-22T12:33:25;100624.03;;;20.66;39.03
30875;BME280;17581;43.222;27.924;2023-04-22T12:35:51;100624.97;;;20.58;41.78
30875;BME280;17581;43.222;27.924;2023-04-22T12:38:17;100627.94;;;20.19;44.59
30875;BME280;17581;43.222;27.924;2023-04-22T12:40:43;100643.25;;;19.53;49.72
30875;BME280;17581;43.222;27.924;2023-04-22T12:43:08;100634.69;;;18.64;52.77
30875;BME280;17581;43.222;27.924;2023-04-22T12:45:33;100636.38;;;17.94;55.63
30875;BME280;17581;43.222;27.924;2023-04-22T12:47:59;100634.72;;;17.61;56.91
30875;BME280;17581;43.222;27.924;2023-04-22T12:50:25;100636.50;;;17.28;58.54